sensor_id;sensor_type;location;lat;lon;timestamp;P1;durP1;ratioP1;P2;durP2;ratioP2
7887;SDS011;3989;48.810;9.208;2024-01-30T09:43:41;9.73;;;7.63;;
7887;SDS011;3989;48.810;9.208;2024-01-30T09:46:16;14.20;;;8.70;;
7887;SDS011;3989;48.810;9.208;2024-01-30T09:48:46;13.70;;;8.80;;
7887;SDS011;3989;48.810;9.208;2024-01-30T09:51:16;11.90;;;8.03;;
7887;SDS011;3989;48.810;9.208;2024-01-30T09:53:46;15.53;;;7.57;;
7887;SDS011;3989;48.810;9.208;2024-01-30T09:56:15;12.33;;;8.50;;
7887;SDS011;3989;48.810;9.208;2024-01-30T09:58:45;10.77;;;8.23;;
7887;SDS011;3989;48.810;9.208;2024-01-30T10:01:13;10.63;;;8.30;;
7887;SDS011;3989;48.810;9.208;2024-01-30T10:03:44;10.33;;;8.33;;
7887;SDS011;3989;48.810;9.208;2024-01-30T10:06:12;10.33;;;7.73;;
7887;SDS011;3989;48.810;9.208;2024-01-30T10:08:41;9.53;;;7.73;;
7887;SDS011;3989;48.810;9.208;2024-01-30T10:11:09;10.47;;;7.83;;
7887;SDS011;3989;48.810;9.208;2024-01-30T10:13:36;11.03;;;8.63;;
7887;SDS011;3989;48.810;9.208;2024-01-30T10:16:05;10.37;;;8.20;;
7887;SDS011;3989;48.810;9.208;2024-01-30T10:18:33;9.50;;;8.50;;
7887;SDS011;3989;48.810;9.208;2024-01-30T10:21:01;10.43;;;8.87;;
7887;SDS011;3989;48.810;9.208;2024-01-30T10:23:29;14.90;;;9.17;;
7887;SDS011;3989;48.810;9.208;2024-01-30T10:25:56;12.73;;;8.23;;
7887;SDS011;3989;48.810;9.208;2024-01-30T10:28:23;18.90;;;8.73;;
7887;SDS011;3989;48.810;9.208;2024-01-30T10:30:57;12.17;;;8.80;;
7887;SDS011;3989;48.810;9.208;2024-01-30T10:33:27;13.00;;;7.83;;
7887;SDS011;3989;48.810;9.208;2024-01-30T10:35:54;14.40;;;7.93;;
7887;SDS011;3989;48.810;9.208;2024-01-30T10:38:26;9.03;;;7.87;;
7887;SDS011;3989;48.810;9.208;2024-01-30T10:40:56;13.97;;;7.80;;
7887;SDS011;3989;48.810;9.208;2024-01-30T10:43:24;9.97;;;8.93;;
7887;SDS011;3989;48.810;9.208;2024-01-30T10:45:57;13.90;;;8.37;;
7887;SDS011;3989;48.810;9.208;2024-01-30T10:48:42;16.33;;;9.83;;
7887;SDS011;3989;48.810;9.208;2024-01-30T10:51:10;15.67;;;8.90;;
7887;SDS011;3989;48.810;9.208;2024-01-30T10:53:40;15.07;;;9.30;;
7887;SDS011;3989;48.810;9.208;2024-01-30T10:56:11;13.20;;;7.87;;
7887;SDS011;3989;48.810;9.208;2024-01-30T10:58:39;11.70;;;8.80;;
7887;SDS011;3989;48.810;9.208;2024-01-30T11:01:07;9.17;;;7.93;;
7887;SDS011;3989;48.810;9.208;2024-01-30T11:03:36;10.30;;;7.87;;
7887;SDS011;3989;48.810;9.208;2024-01-30T11:06:10;13.37;;;8.20;;
7887;SDS011;3989;48.810;9.208;2024-01-30T11:08:39;12.93;;;8.27;;
7887;SDS011;3989;48.810;9.208;2024-01-30T11:11:08;13.63;;;9.17;;
7887;SDS011;3989;48.810;9.208;2024-01-30T11:13:36;14.30;;;8.70;;
7887;SDS011;3989;48.810;9.208;2024-01-30T11:16:03;14.37;;;8.33;;
7887;SDS011;3989;48.810;9.208;2024-01-30T11:18:33;10.20;;;8.40;;
7887;SDS011;3989;48.810;9.208;2024-01-30T11:21:04;17.50;;;9.17;;
7887;SDS011;3989;48.810;9.208;2024-01-30T11:23:33;9.33;;;8.37;;
7887;SDS011;3989;48.810;9.208;2024-01-30T11:26:02;11.73;;;8.87;;
7887;SDS011;3989;48.810;9.208;2024-01-30T11:28:32;11.33;;;9.33;;
7887;SDS011;3989;48.810;9.208;2024-01-30T11:31:03;14.13;;;9.20;;
7887;SDS011;3989;48.810;9.208;2024-01-30T11:33:32;12.27;;;8.63;;
7887;SDS011;3989;48.810;9.208;2024-01-30T11:35:59;12.67;;;9.80;;
7887;SDS011;3989;48.810;9.208;2024-01-30T11:38:29;15.07;;;9.70;;
7887;SDS011;3989;48.810;9.208;2024-01-30T11:40:56;15.87;;;10.07;;
7887;SDS011;3989;48.810;9.208;2024-01-30T11:43:23;14.40;;;9.97;;
7887;SDS011;3989;48.810;9.208;2024-01-30T11:45:51;13.57;;;10.87;;
7887;SDS011;3989;48.810;9.208;2024-01-30T11:48:18;15.00;;;10.37;;
7887;SDS011;3989;48.810;9.208;2024-01-30T11:50:45;12.53;;;10.87;;
7887;SDS011;3989;48.810;9.208;2024-01-30T11:53:12;11.37;;;8.87;;
7887;SDS011;3989;48.810;9.208;2024-01-30T11:55:41;13.70;;;8.80;;
7887;SDS011;3989;48.810;9.208;2024-01-30T11:58:08;12.87;;;9.33;;
7887;SDS011;3989;48.810;9.208;2024-01-30T12:00:35;12.53;;;9.57;;
7887;SDS011;3989;48.810;9.208;2024-01-30T12:03:02;13.53;;;9.40;;
7887;SDS011;3989;48.810;9.208;2024-01-30T12:05:32;12.97;;;9.03;;
7887;SDS011;3989;48.810;9.208;2024-01-30T12:07:59;11.90;;;10.03;;
7887;SDS011;3989;48.810;9.208;2024-01-30T12:10:26;12.37;;;9.27;;
7887;SDS011;3989;48.810;9.208;2024-01-30T12:12:55;12.03;;;9.77;;
7887;SDS011;3989;48.810;9.208;2024-01-30T12:15:23;13.70;;;10.80;;
7887;SDS011;3989;48.810;9.208;2024-01-30T12:17:51;16.53;;;10.93;;
7887;SDS011;3989;48.810;9.208;2024-01-30T12:20:18;20.60;;;10.83;;
7887;SDS011;3989;48.810;9.208;2024-01-30T12:22:47;19.03;;;10.93;;
7887;SDS011;3989;48.810;9.208;2024-01-30T12:25:15;14.23;;;10.40;;
7887;SDS011;3989;48.810;9.208;2024-01-30T12:27:43;14.70;;;9.80;;
7887;SDS011;3989;48.810;9.208;2024-01-30T12:30:13;18.40;;;9.60;;
7887;SDS011;3989;48.810;9.208;2024-01-30T12:32:40;12.90;;;10.20;;
7887;SDS011;3989;48.810;9.208;2024-01-30T12:35:09;16.17;;;10.20;;
7887;SDS011;3989;48.810;9.208;2024-01-30T12:37:37;18.67;;;9.80;;
7887;SDS011;3989;48.810;9.208;2024-01-30T12:40:06;12.00;;;9.80;;
7887;SDS011;3989;48.810;9.208;2024-01-30T12:42:34;16.77;;;10.13;;
7887;SDS011;3989;48.810;9.208;2024-01-30T12:45:02;13.33;;;9.43;;
7887;SDS011;3989;48.810;9.208;2024-01-30T12:47:31;17.80;;;10.53;;
7887;SDS011;3989;48.810;9.208;2024-01-30T12:49:59;21.67;;;9.27;;
7887;SDS011;3989;48.810;9.208;2024-01-30T12:52:26;11.83;;;8.70;;
7887;SDS011;3989;48.810;9.208;2024-01-30T12:54:53;16.40;;;9.60;;
7887;SDS011;3989;48.810;9.208;2024-01-30T12:57:20;9.17;;;8.20;;
7887;SDS011;3989;48.810;9.208;2024-01-30T12:59:47;10.57;;;8.93;;
7887;SDS011;3989;48.810;9.208;2024-01-30T13:02:15;10.40;;;9.17;;
7887;SDS011;3989;48.810;9.208;2024-01-30T13:04:44;11.80;;;9.73;;
7887;SDS011;3989;48.810;9.208;2024-01-30T13:07:11;13.67;;;10.20;;
7887;SDS011;3989;48.810;9.208;2024-01-30T13:09:38;13.10;;;9.00;;
7887;SDS011;3989;48.810;9.208;2024-01-30T13:12:05;15.10;;;10.23;;
7887;SDS011;3989;48.810;9.208;2024-01-30T13:14:33;14.40;;;9.27;;
7887;SDS011;3989;48.810;9.208;2024-01-30T13:17:03;13.43;;;9.83;;
7887;SDS011;3989;48.810;9.208;2024-01-30T13:19:30;16.93;;;10.90;;
7887;SDS011;3989;48.810;9.208;2024-01-30T13:21:58;12.50;;;10.43;;
7887;SDS011;3989;48.810;9.208;2024-01-30T13:24:25;14.57;;;10.07;;
7887;SDS011;3989;48.810;9.208;2024-01-30T13:26:52;14.97;;;9.53;;
7887;SDS011;3989;48.810;9.208;2024-01-30T13:29:19;17.07;;;10.27;;
7887;SDS011;3989;48.810;9.208;2024-01-30T13:31:46;14.23;;;10.30;;
7887;SDS011;3989;48.810;9.208;2024-01-30T13:34:13;18.07;;;9.70;;
7887;SDS011;3989;48.810;9.208;2024-01-30T13:36:40;16.13;;;9.43;;
7887;SDS011;3989;48.810;9.208;2024-01-30T13:39:10;11.93;;;9.13;;
7887;SDS011;3989;48.810;9.208;2024-01-30T13:41:37;13.50;;;9.17;;
7887;SDS011;3989;48.810;9.208;2024-01-30T13:44:04;11.30;;;8.57;;
7887;SDS011;3989;48.810;9.208;2024-01-30T13:46:32;10.63;;;8.37;;
7887;SDS011;3989;48.810;9.208;2024-01-30T13:48:58;9.80;;;8.87;;
7887;SDS011;3989;48.810;9.208;2024-01-30T13:51:25;13.77;;;9.67;;
7887;SDS011;3989;48.810;9.208;2024-01-30T13:53:52;11.60;;;8.70;;
7887;SDS011;3989;48.810;9.208;2024-01-30T13:56:21;15.10;;;9.03;;
7887;SDS011;3989;48.810;9.208;2024-01-30T13:58:50;13.60;;;9.23;;
7887;SDS011;3989;48.810;9.208;2024-01-30T14:01:17;12.73;;;9.10;;
7887;SDS011;3989;48.810;9.208;2024-01-30T14:03:44;15.37;;;9.20;;
7887;SDS011;3989;48.810;9.208;2024-01-30T14:06:12;14.13;;;9.27;;
7887;SDS011;3989;48.810;9.208;2024-01-30T14:08:39;13.33;;;9.70;;
7887;SDS011;3989;48.810;9.208;2024-01-30T14:11:08;18.27;;;10.33;;
7887;SDS011;3989;48.810;9.208;2024-01-30T14:13:37;14.97;;;9.23;;
7887;SDS011;3989;48.810;9.208;2024-01-30T14:16:04;13.77;;;8.83;;
7887;SDS011;3989;48.810;9.208;2024-01-30T14:18:32;12.80;;;9.83;;
7887;SDS011;3989;48.810;9.208;2024-01-30T14:20:59;20.50;;;9.20;;
7887;SDS011;3989;48.810;9.208;2024-01-30T14:23:26;14.70;;;10.50;;
7887;SDS011;3989;48.810;9.208;2024-01-30T14:25:53;12.90;;;9.80;;
7887;SDS011;3989;48.810;9.208;2024-01-30T14:28:20;11.70;;;10.27;;
7887;SDS011;3989;48.810;9.208;2024-01-30T14:30:48;14.63;;;9.57;;
7887;SDS011;3989;48.810;9.208;2024-01-30T14:33:15;12.73;;;9.83;;
7887;SDS011;3989;48.810;9.208;2024-01-30T14:35:42;13.93;;;10.50;;
7887;SDS011;3989;48.810;9.208;2024-01-30T14:38:09;24.77;;;16.13;;
7887;SDS011;3989;48.810;9.208;2024-01-30T14:40:38;14.10;;;9.63;;
7887;SDS011;3989;48.810;9.208;2024-01-30T14:43:06;12.27;;;9.83;;
7887;SDS011;3989;48.810;9.208;2024-01-30T14:45:33;10.23;;;8.67;;
7887;SDS011;3989;48.810;9.208;2024-01-30T14:48:02;10.87;;;9.20;;
7887;SDS011;3989;48.810;9.208;2024-01-30T14:50:29;12.67;;;10.07;;
7887;SDS011;3989;48.810;9.208;2024-01-30T14:52:56;11.20;;;9.07;;
7887;SDS011;3989;48.810;9.208;2024-01-30T14:55:24;9.43;;;8.53;;
7887;SDS011;3989;48.810;9.208;2024-01-30T14:57:51;9.67;;;8.60;;
7887;SDS011;3989;48.810;9.208;2024-01-30T15:00:19;9.97;;;8.53;;
7887;SDS011;3989;48.810;9.208;2024-01-30T15:02:47;13.43;;;9.23;;
7887;SDS011;3989;48.810;9.208;2024-01-30T15:05:15;10.67;;;9.13;;
7887;SDS011;3989;48.810;9.208;2024-01-30T15:07:42;10.13;;;9.10;;
7887;SDS011;3989;48.810;9.208;2024-01-30T15:10:09;12.43;;;10.17;;
7887;SDS011;3989;48.810;9.208;2024-01-30T15:12:37;18.63;;;9.63;;
7887;SDS011;3989;48.810;9.208;2024-01-30T15:15:06;12.87;;;8.90;;
7887;SDS011;3989;48.810;9.208;2024-01-30T15:17:33;9.63;;;8.73;;
7887;SDS011;3989;48.810;9.208;2024-01-30T15:20:00;14.17;;;9.10;;
7887;SDS011;3989;48.810;9.208;2024-01-30T15:22:30;11.87;;;9.33;;
7887;SDS011;3989;48.810;9.208;2024-01-30T15:24:57;11.27;;;9.03;;
7887;SDS011;3989;48.810;9.208;2024-01-30T15:27:24;13.57;;;9.30;;
7887;SDS011;3989;48.810;9.208;2024-01-30T15:29:51;10.00;;;9.00;;
7887;SDS011;3989;48.810;9.208;2024-01-30T15:32:18;13.00;;;8.90;;
7887;SDS011;3989;48.810;9.208;2024-01-30T15:34:59;16.07;;;9.90;;
7887;SDS011;3989;48.810;9.208;2024-01-30T15:37:31;12.77;;;9.10;;
7887;SDS011;3989;48.810;9.208;2024-01-30T15:40:18;9.50;;;8.50;;
7887;SDS011;3989;48.810;9.208;2024-01-30T15:42:45;11.47;;;9.47;;
7887;SDS011;3989;48.810;9.208;2024-01-30T15:45:12;11.53;;;8.67;;
7887;SDS011;3989;48.810;9.208;2024-01-30T15:47:46;12.47;;;9.13;;
7887;SDS011;3989;48.810;9.208;2024-01-30T15:50:15;9.57;;;8.20;;
7887;SDS011;3989;48.810;9.208;2024-01-30T15:55:28;11.03;;;8.90;;
7887;SDS011;3989;48.810;9.208;2024-01-30T15:57:55;14.20;;;9.20;;
7887;SDS011;3989;48.810;9.208;2024-01-30T16:00:22;12.47;;;9.57;;
7887;SDS011;3989;48.810;9.208;2024-01-30T16:02:49;10.50;;;8.50;;
7887;SDS011;3989;48.810;9.208;2024-01-30T16:05:16;11.53;;;9.30;;
7887;SDS011;3989;48.810;9.208;2024-01-30T16:07:46;10.83;;;9.03;;
7887;SDS011;3989;48.810;9.208;2024-01-30T16:10:14;12.37;;;9.27;;
7887;SDS011;3989;48.810;9.208;2024-01-30T16:12:42;11.27;;;8.20;;
7887;SDS011;3989;48.810;9.208;2024-01-30T16:15:11;17.00;;;9.47;;
7887;SDS011;3989;48.810;9.208;2024-01-30T16:17:38;14.87;;;10.30;;
7887;SDS011;3989;48.810;9.208;2024-01-30T16:20:05;13.80;;;10.10;;
7887;SDS011;3989;48.810;9.208;2024-01-30T16:22:34;15.97;;;9.30;;
7887;SDS011;3989;48.810;9.208;2024-01-30T16:25:01;14.77;;;8.47;;
7887;SDS011;3989;48.810;9.208;2024-01-30T16:27:31;13.93;;;8.47;;
7887;SDS011;3989;48.810;9.208;2024-01-30T16:29:58;16.63;;;9.10;;
7887;SDS011;3989;48.810;9.208;2024-01-30T16:32:25;12.10;;;8.77;;
7887;SDS011;3989;48.810;9.208;2024-01-30T16:34:56;11.37;;;8.57;;
7887;SDS011;3989;48.810;9.208;2024-01-30T16:37:23;11.57;;;8.87;;
7887;SDS011;3989;48.810;9.208;2024-01-30T16:39:51;11.43;;;9.57;;
7887;SDS011;3989;48.810;9.208;2024-01-30T16:42:18;14.30;;;9.80;;
7887;SDS011;3989;48.810;9.208;2024-01-30T16:44:47;15.27;;;10.30;;
7887;SDS011;3989;48.810;9.208;2024-01-30T16:47:14;14.00;;;9.80;;
7887;SDS011;3989;48.810;9.208;2024-01-30T16:49:42;14.60;;;9.73;;
7887;SDS011;3989;48.810;9.208;2024-01-30T16:52:09;12.17;;;9.10;;
7887;SDS011;3989;48.810;9.208;2024-01-30T16:54:36;12.63;;;9.03;;
7887;SDS011;3989;48.810;9.208;2024-01-30T16:57:03;16.37;;;11.13;;
7887;SDS011;3989;48.810;9.208;2024-01-30T16:59:30;16.57;;;11.97;;
7887;SDS011;3989;48.810;9.208;2024-01-30T17:01:59;12.63;;;9.77;;
7887;SDS011;3989;48.810;9.208;2024-01-30T17:04:26;16.90;;;9.17;;
7887;SDS011;3989;48.810;9.208;2024-01-30T17:06:53;11.67;;;9.77;;
7887;SDS011;3989;48.810;9.208;2024-01-30T17:09:20;15.70;;;9.77;;
7887;SDS011;3989;48.810;9.208;2024-01-30T17:11:47;13.77;;;9.30;;
7887;SDS011;3989;48.810;9.208;2024-01-30T17:14:14;13.93;;;9.70;;
7887;SDS011;3989;48.810;9.208;2024-01-30T17:16:43;12.83;;;9.67;;
7887;SDS011;3989;48.810;9.208;2024-01-30T17:19:12;11.60;;;10.00;;
7887;SDS011;3989;48.810;9.208;2024-01-30T17:21:40;13.07;;;10.30;;
7887;SDS011;3989;48.810;9.208;2024-01-30T17:24:09;14.03;;;9.63;;
7887;SDS011;3989;48.810;9.208;2024-01-30T17:26:37;16.53;;;11.10;;
7887;SDS011;3989;48.810;9.208;2024-01-30T17:29:04;11.60;;;10.20;;
7887;SDS011;3989;48.810;9.208;2024-01-30T17:31:34;14.37;;;10.37;;
7887;SDS011;3989;48.810;9.208;2024-01-30T17:34:16;13.70;;;10.40;;
7887;SDS011;3989;48.810;9.208;2024-01-30T17:36:45;11.37;;;9.80;;
7887;SDS011;3989;48.810;9.208;2024-01-30T17:39:12;14.33;;;11.03;;
7887;SDS011;3989;48.810;9.208;2024-01-30T17:41:41;13.83;;;10.87;;
7887;SDS011;3989;48.810;9.208;2024-01-30T17:44:09;16.50;;;10.80;;
7887;SDS011;3989;48.810;9.208;2024-01-30T17:46:39;13.80;;;9.93;;
7887;SDS011;3989;48.810;9.208;2024-01-30T17:49:07;13.67;;;9.27;;
7887;SDS011;3989;48.810;9.208;2024-01-30T17:51:42;14.83;;;10.87;;
7887;SDS011;3989;48.810;9.208;2024-01-30T17:54:09;15.27;;;11.50;;
7887;SDS011;3989;48.810;9.208;2024-01-30T17:56:37;13.17;;;10.47;;
7887;SDS011;3989;48.810;9.208;2024-01-30T17:59:04;16.47;;;10.17;;
7887;SDS011;3989;48.810;9.208;2024-01-30T18:01:31;14.67;;;11.50;;
7887;SDS011;3989;48.810;9.208;2024-01-30T18:06:33;14.57;;;8.93;;
7887;SDS011;3989;48.810;9.208;2024-01-30T18:09:05;18.53;;;9.90;;
7887;SDS011;3989;48.810;9.208;2024-01-30T18:11:34;16.73;;;10.20;;
7887;SDS011;3989;48.810;9.208;2024-01-30T18:14:02;12.37;;;10.53;;
7887;SDS011;3989;48.810;9.208;2024-01-30T18:16:30;14.47;;;9.97;;
7887;SDS011;3989;48.810;9.208;2024-01-30T18:19:00;15.73;;;9.60;;
7887;SDS011;3989;48.810;9.208;2024-01-30T18:21:28;14.00;;;9.93;;
7887;SDS011;3989;48.810;9.208;2024-01-30T18:23:55;12.77;;;10.37;;
7887;SDS011;3989;48.810;9.208;2024-01-30T18:26:27;15.40;;;10.17;;
7887;SDS011;3989;48.810;9.208;2024-01-30T18:29:01;12.77;;;10.73;;
7887;SDS011;3989;48.810;9.208;2024-01-30T18:31:31;14.50;;;10.50;;
7887;SDS011;3989;48.810;9.208;2024-01-30T18:34:06;12.93;;;9.73;;
7887;SDS011;3989;48.810;9.208;2024-01-30T18:36:39;14.87;;;10.03;;
7887;SDS011;3989;48.810;9.208;2024-01-30T18:39:45;14.67;;;10.87;;
7887;SDS011;3989;48.810;9.208;2024-01-30T18:45:11;14.07;;;10.23;;
7887;SDS011;3989;48.810;9.208;2024-01-30T18:47:59;15.03;;;10.27;;
7887;SDS011;3989;48.810;9.208;2024-01-30T18:50:26;17.07;;;11.00;;
7887;SDS011;3989;48.810;9.208;2024-01-30T18:52:55;17.30;;;13.00;;
7887;SDS011;3989;48.810;9.208;2024-01-30T18:55:23;16.07;;;12.33;;
7887;SDS011;3989;48.810;9.208;2024-01-30T18:57:53;17.40;;;12.77;;
7887;SDS011;3989;48.810;9.208;2024-01-30T19:00:22;19.10;;;11.73;;
7887;SDS011;3989;48.810;9.208;2024-01-30T19:02:55;18.13;;;11.60;;
7887;SDS011;3989;48.810;9.208;2024-01-30T19:05:23;16.87;;;10.70;;
7887;SDS011;3989;48.810;9.208;2024-01-30T19:07:52;20.10;;;11.07;;
7887;SDS011;3989;48.810;9.208;2024-01-30T19:10:29;16.27;;;10.73;;
7887;SDS011;3989;48.810;9.208;2024-01-30T19:13:06;19.10;;;12.10;;
7887;SDS011;3989;48.810;9.208;2024-01-30T19:15:36;18.23;;;11.43;;
7887;SDS011;3989;48.810;9.208;2024-01-30T19:18:25;20.33;;;11.50;;
7887;SDS011;3989;48.810;9.208;2024-01-30T19:20:55;17.13;;;11.90;;
7887;SDS011;3989;48.810;9.208;2024-01-30T19:23:25;23.93;;;11.93;;
7887;SDS011;3989;48.810;9.208;2024-01-30T19:25:56;15.73;;;10.97;;
7887;SDS011;3989;48.810;9.208;2024-01-30T19:28:26;20.50;;;10.90;;
7887;SDS011;3989;48.810;9.208;2024-01-30T19:30:56;17.40;;;11.30;;
7887;SDS011;3989;48.810;9.208;2024-01-30T19:33:26;13.33;;;10.63;;
7887;SDS011;3989;48.810;9.208;2024-01-30T19:35:55;14.27;;;10.70;;
7887;SDS011;3989;48.810;9.208;2024-01-30T19:38:27;14.67;;;11.30;;
7887;SDS011;3989;48.810;9.208;2024-01-30T19:41:10;17.00;;;11.17;;
7887;SDS011;3989;48.810;9.208;2024-01-30T19:43:38;18.10;;;11.40;;
7887;SDS011;3989;48.810;9.208;2024-01-30T19:46:15;16.73;;;10.70;;
7887;SDS011;3989;48.810;9.208;2024-01-30T19:48:44;14.73;;;10.53;;
7887;SDS011;3989;48.810;9.208;2024-01-30T19:51:12;15.93;;;10.60;;
7887;SDS011;3989;48.810;9.208;2024-01-30T19:53:42;20.47;;;10.97;;
7887;SDS011;3989;48.810;9.208;2024-01-30T19:56:12;16.40;;;10.13;;
7887;SDS011;3989;48.810;9.208;2024-01-30T19:58:43;13.80;;;9.93;;
7887;SDS011;3989;48.810;9.208;2024-01-30T20:01:17;13.73;;;10.10;;
7887;SDS011;3989;48.810;9.208;2024-01-30T20:03:46;15.33;;;10.07;;
7887;SDS011;3989;48.810;9.208;2024-01-30T20:06:30;14.53;;;9.77;;
7887;SDS011;3989;48.810;9.208;2024-01-30T20:08:58;14.50;;;10.27;;
7887;SDS011;3989;48.810;9.208;2024-01-30T20:11:27;18.13;;;10.27;;
7887;SDS011;3989;48.810;9.208;2024-01-30T20:13:56;14.80;;;10.60;;
7887;SDS011;3989;48.810;9.208;2024-01-30T20:16:37;15.73;;;11.10;;
7887;SDS011;3989;48.810;9.208;2024-01-30T20:19:11;13.60;;;10.00;;
7887;SDS011;3989;48.810;9.208;2024-01-30T20:21:42;18.97;;;11.47;;
7887;SDS011;3989;48.810;9.208;2024-01-30T20:24:14;18.13;;;11.57;;
7887;SDS011;3989;48.810;9.208;2024-01-30T20:26:44;19.53;;;10.70;;
7887;SDS011;3989;48.810;9.208;2024-01-30T20:29:13;15.13;;;10.77;;
7887;SDS011;3989;48.810;9.208;2024-01-30T20:31:47;18.90;;;10.97;;
7887;SDS011;3989;48.810;9.208;2024-01-30T20:34:14;13.87;;;10.40;;
7887;SDS011;3989;48.810;9.208;2024-01-30T20:36:42;17.27;;;11.70;;
7887;SDS011;3989;48.810;9.208;2024-01-30T20:39:13;15.50;;;10.77;;
7887;SDS011;3989;48.810;9.208;2024-01-30T20:41:42;18.90;;;11.00;;
7887;SDS011;3989;48.810;9.208;2024-01-30T20:44:10;15.73;;;10.80;;
7887;SDS011;3989;48.810;9.208;2024-01-30T20:46:41;14.03;;;10.97;;
7887;SDS011;3989;48.810;9.208;2024-01-30T20:49:11;16.47;;;11.13;;
7887;SDS011;3989;48.810;9.208;2024-01-30T20:51:38;13.50;;;10.90;;
7887;SDS011;3989;48.810;9.208;2024-01-30T20:54:07;19.90;;;10.93;;
7887;SDS011;3989;48.810;9.208;2024-01-30T20:56:37;13.93;;;10.40;;
7887;SDS011;3989;48.810;9.208;2024-01-30T20:59:05;13.93;;;10.70;;
7887;SDS011;3989;48.810;9.208;2024-01-30T21:01:36;17.90;;;10.27;;
7887;SDS011;3989;48.810;9.208;2024-01-30T21:04:08;13.90;;;10.93;;
7887;SDS011;3989;48.810;9.208;2024-01-30T21:06:43;13.33;;;9.47;;
7887;SDS011;3989;48.810;9.208;2024-01-30T21:09:10;16.47;;;9.97;;
7887;SDS011;3989;48.810;9.208;2024-01-30T21:11:39;12.37;;;9.87;;
7887;SDS011;3989;48.810;9.208;2024-01-30T21:14:10;17.87;;;10.23;;
7887;SDS011;3989;48.810;9.208;2024-01-30T21:16:37;15.03;;;10.37;;
7887;SDS011;3989;48.810;9.208;2024-01-30T21:24:25;16.80;;;10.33;;
7887;SDS011;3989;48.810;9.208;2024-01-30T21:27:02;14.77;;;10.17;;
7887;SDS011;3989;48.810;9.208;2024-01-30T21:32:31;13.87;;;10.50;;
7887;SDS011;3989;48.810;9.208;2024-01-30T21:35:02;18.47;;;10.47;;
7887;SDS011;3989;48.810;9.208;2024-01-30T21:37:43;13.33;;;10.63;;
7887;SDS011;3989;48.810;9.208;2024-01-30T21:40:29;15.43;;;11.00;;
7887;SDS011;3989;48.810;9.208;2024-01-30T21:42:58;18.23;;;12.33;;
7887;SDS011;3989;48.810;9.208;2024-01-30T21:45:26;14.03;;;11.63;;
7887;SDS011;3989;48.810;9.208;2024-01-30T21:47:55;14.63;;;11.00;;
7887;SDS011;3989;48.810;9.208;2024-01-30T21:50:23;15.83;;;10.93;;
7887;SDS011;3989;48.810;9.208;2024-01-30T21:52:50;14.27;;;10.57;;
7887;SDS011;3989;48.810;9.208;2024-01-30T21:55:18;21.83;;;10.90;;
7887;SDS011;3989;48.810;9.208;2024-01-30T22:07:05;15.03;;;10.67;;
7887;SDS011;3989;48.810;9.208;2024-01-30T22:17:50;14.67;;;10.80;;
7887;SDS011;3989;48.810;9.208;2024-01-30T22:20:19;12.03;;;10.40;;
7887;SDS011;3989;48.810;9.208;2024-01-30T22:22:46;19.13;;;10.90;;
7887;SDS011;3989;48.810;9.208;2024-01-30T22:25:12;13.97;;;10.57;;
7887;SDS011;3989;48.810;9.208;2024-01-30T22:27:40;16.67;;;10.17;;
7887;SDS011;3989;48.810;9.208;2024-01-30T22:30:07;21.10;;;10.90;;
7887;SDS011;3989;48.810;9.208;2024-01-30T22:32:34;13.77;;;10.70;;
7887;SDS011;3989;48.810;9.208;2024-01-30T22:35:02;15.43;;;10.13;;
7887;SDS011;3989;48.810;9.208;2024-01-30T22:37:36;16.10;;;10.67;;
7887;SDS011;3989;48.810;9.208;2024-01-30T22:40:04;11.37;;;10.10;;
7887;SDS011;3989;48.810;9.208;2024-01-30T22:42:32;12.63;;;10.70;;
7887;SDS011;3989;48.810;9.208;2024-01-30T22:44:59;14.17;;;10.30;;
7887;SDS011;3989;48.810;9.208;2024-01-30T22:47:26;15.60;;;10.07;;
7887;SDS011;3989;48.810;9.208;2024-01-30T22:49:53;17.77;;;10.47;;
7887;SDS011;3989;48.810;9.208;2024-01-30T22:52:20;15.87;;;10.80;;
7887;SDS011;3989;48.810;9.208;2024-01-30T22:54:49;17.90;;;10.87;;
7887;SDS011;3989;48.810;9.208;2024-01-30T22:57:16;19.23;;;11.10;;
7887;SDS011;3989;48.810;9.208;2024-01-30T22:59:43;11.93;;;10.73;;
7887;SDS011;3989;48.810;9.208;2024-01-30T23:02:10;15.93;;;12.33;;
7887;SDS011;3989;48.810;9.208;2024-01-30T23:04:37;16.30;;;11.27;;
7887;SDS011;3989;48.810;9.208;2024-01-30T23:07:04;14.63;;;11.93;;
7887;SDS011;3989;48.810;9.208;2024-01-30T23:09:30;16.60;;;11.27;;
7887;SDS011;3989;48.810;9.208;2024-01-30T23:11:59;17.03;;;11.80;;
7887;SDS011;3989;48.810;9.208;2024-01-30T23:14:26;14.27;;;11.37;;
7887;SDS011;3989;48.810;9.208;2024-01-30T23:16:53;12.93;;;10.77;;
7887;SDS011;3989;48.810;9.208;2024-01-30T23:19:20;17.00;;;12.27;;
7887;SDS011;3989;48.810;9.208;2024-01-30T23:21:47;13.67;;;11.53;;
7887;SDS011;3989;48.810;9.208;2024-01-30T23:24:16;16.43;;;12.30;;
7887;SDS011;3989;48.810;9.208;2024-01-30T23:26:43;16.33;;;12.03;;
7887;SDS011;3989;48.810;9.208;2024-01-30T23:29:11;13.57;;;10.70;;
7887;SDS011;3989;48.810;9.208;2024-01-30T23:31:39;15.90;;;11.23;;
7887;SDS011;3989;48.810;9.208;2024-01-30T23:34:08;14.00;;;10.60;;
7887;SDS011;3989;48.810;9.208;2024-01-30T23:36:38;14.13;;;11.30;;
7887;SDS011;3989;48.810;9.208;2024-01-30T23:39:07;12.13;;;10.70;;
7887;SDS011;3989;48.810;9.208;2024-01-30T23:41:34;13.03;;;10.47;;
7887;SDS011;3989;48.810;9.208;2024-01-30T23:44:01;19.03;;;11.80;;
7887;SDS011;3989;48.810;9.208;2024-01-30T23:46:32;16.93;;;11.40;;
7887;SDS011;3989;48.810;9.208;2024-01-30T23:48:59;15.20;;;11.23;;
7887;SDS011;3989;48.810;9.208;2024-01-30T23:51:26;13.87;;;10.17;;
7887;SDS011;3989;48.810;9.208;2024-01-30T23:53:53;15.23;;;10.57;;
7887;SDS011;3989;48.810;9.208;2024-01-30T23:56:20;12.43;;;10.60;;
7887;SDS011;3989;48.810;9.208;2024-01-30T23:58:47;13.50;;;10.93;;
